createdAt,value
2024-05-09T00:00:49.104Z,79.12
2024-05-09T00:03:16.394Z,79.19
2024-05-09T00:05:46.680Z,78.64
2024-05-09T00:08:17.133Z,79.22
2024-05-09T00:10:47.130Z,78.94
2024-05-09T00:13:14.213Z,79.91
2024-05-09T00:15:41.430Z,80.11
2024-05-09T00:18:09.169Z,79.50
2024-05-09T00:20:41.667Z,79.82
2024-05-09T00:23:14.292Z,80.27
2024-05-09T00:25:45.492Z,80.13
2024-05-09T00:28:14.203Z,81.70
2024-05-09T00:30:44.921Z,80.69
2024-05-09T00:33:12.175Z,80.22
2024-05-09T00:35:42.909Z,80.26
2024-05-09T00:38:10.884Z,80.87
2024-05-09T00:40:42.995Z,80.68
2024-05-09T00:43:14.785Z,80.35
2024-05-09T00:45:43.797Z,80.98
2024-05-09T00:48:15.191Z,80.64
2024-05-09T00:50:48.283Z,80.95
2024-05-09T00:53:17.435Z,80.63
2024-05-09T00:55:45.566Z,80.90
2024-05-09T00:58:16.316Z,81.53
2024-05-09T01:00:44.132Z,81.38
2024-05-09T01:03:13.381Z,81.78
2024-05-09T01:05:42.995Z,81.56
2024-05-09T01:08:11.276Z,81.50
2024-05-09T01:10:39.541Z,81.96
2024-05-09T01:13:07.765Z,82.07
2024-05-09T01:15:36.080Z,82.98
2024-05-09T01:18:12.942Z,82.82
2024-05-09T01:20:44.262Z,81.70
2024-05-09T01:23:16.546Z,82.59
2024-05-09T01:25:47.321Z,83.31
2024-05-09T01:28:15.165Z,81.69
2024-05-09T01:30:44.608Z,81.07
2024-05-09T01:33:12.722Z,81.69
2024-05-09T01:35:43.348Z,81.48
2024-05-09T01:38:13.975Z,81.63
2024-05-09T01:40:46.157Z,81.50
2024-05-09T01:43:16.167Z,81.95
2024-05-09T01:45:43.238Z,82.53
2024-05-09T01:48:13.657Z,82.69
2024-05-09T01:50:43.632Z,82.92
2024-05-09T01:53:14.065Z,83.22
2024-05-09T01:55:44.556Z,83.54
2024-05-09T01:58:11.886Z,84.01
2024-05-09T02:00:42.925Z,83.32
2024-05-09T02:03:16.973Z,83.65
2024-05-09T02:05:47.266Z,83.71
2024-05-09T02:08:20.069Z,83.89
2024-05-09T02:10:49.695Z,84.94
2024-05-09T02:13:19.369Z,84.54
2024-05-09T02:15:46.732Z,84.81
2024-05-09T02:18:18.456Z,85.60
2024-05-09T02:20:45.777Z,85.14
2024-05-09T02:23:15.466Z,85.46
2024-05-09T02:25:42.585Z,86.41
2024-05-09T02:28:12.191Z,86.11
2024-05-09T02:30:41.565Z,86.00
2024-05-09T02:33:12.276Z,86.06
2024-05-09T02:35:41.867Z,86.34
2024-05-09T02:38:14.699Z,85.70
2024-05-09T02:40:41.744Z,84.88
2024-05-09T02:43:11.041Z,84.48
2024-05-09T02:45:44.378Z,84.73
2024-05-09T02:48:13.227Z,84.46
2024-05-09T02:50:44.556Z,84.08
2024-05-09T02:53:14.794Z,83.78
2024-05-09T02:55:42.649Z,84.00
2024-05-09T02:58:10.707Z,83.45
2024-05-09T03:00:41.374Z,83.66
2024-05-09T03:03:15.889Z,84.43
2024-05-09T03:05:44.501Z,84.33
2024-05-09T03:08:14.616Z,84.68
2024-05-09T03:10:44.226Z,85.12
2024-05-09T03:13:14.964Z,84.97
2024-05-09T03:15:44.580Z,85.78
2024-05-09T03:18:12.735Z,84.50
2024-05-09T03:20:45.000Z,84.88
2024-05-09T03:23:12.411Z,84.96
2024-05-09T03:25:39.550Z,84.79
2024-05-09T03:28:09.133Z,84.63
2024-05-09T03:30:41.296Z,84.63
2024-05-09T03:33:20.431Z,83.47
2024-05-09T03:35:49.099Z,83.30
2024-05-09T03:38:18.887Z,82.98
2024-05-09T03:40:50.751Z,82.58
2024-05-09T03:43:21.660Z,82.88
2024-05-09T03:45:52.346Z,84.01
2024-05-09T03:48:19.641Z,83.09
2024-05-09T03:50:50.702Z,83.43
2024-05-09T03:53:17.975Z,83.07
2024-05-09T03:55:45.047Z,83.27
2024-05-09T03:58:14.333Z,83.78
2024-05-09T04:00:42.550Z,83.56
2024-05-09T04:03:11.819Z,82.90
2024-05-09T04:05:44.485Z,81.96
2024-05-09T04:08:12.152Z,81.82
2024-05-09T04:10:41.437Z,82.71
2024-05-09T04:13:11.784Z,82.92
2024-05-09T04:15:41.637Z,83.89
2024-05-09T04:18:08.870Z,82.85
2024-05-09T04:20:39.413Z,82.08
2024-05-09T04:23:12.122Z,82.25
2024-05-09T04:25:46.898Z,82.49
2024-05-09T04:28:16.869Z,82.25
2024-05-09T04:30:43.955Z,80.75
2024-05-09T04:33:13.438Z,81.78
2024-05-09T04:35:45.562Z,81.51
2024-05-09T04:38:16.077Z,80.18
2024-05-09T04:40:45.801Z,79.50
2024-05-09T04:43:19.675Z,79.65
2024-05-09T04:45:46.944Z,77.56
2024-05-09T04:48:14.259Z,77.93
2024-05-09T04:50:41.741Z,78.73
2024-05-09T04:53:10.645Z,79.51
2024-05-09T04:55:39.901Z,80.79
2024-05-09T04:58:13.209Z,81.20
2024-05-09T05:00:42.625Z,81.94
2024-05-09T05:03:14.419Z,80.77
2024-05-09T05:05:44.575Z,80.24
2024-05-09T05:08:17.711Z,78.63
2024-05-09T05:10:47.486Z,76.55
2024-05-09T05:13:21.476Z,76.34
2024-05-09T05:15:57.242Z,76.44
2024-05-09T05:18:30.892Z,76.02
2024-05-09T05:20:58.678Z,77.32
2024-05-09T05:23:26.191Z,76.04
2024-05-09T05:25:54.274Z,74.88
2024-05-09T05:28:24.704Z,73.62
2024-05-09T05:30:56.548Z,72.59
2024-05-09T05:33:24.143Z,72.74
2024-05-09T05:35:51.476Z,72.83
2024-05-09T05:38:19.496Z,72.87
2024-05-09T05:40:49.928Z,72.35
2024-05-09T05:43:18.650Z,72.02
2024-05-09T05:45:49.280Z,71.07
2024-05-09T05:48:23.780Z,71.33
2024-05-09T05:50:51.179Z,71.13
2024-05-09T05:53:18.405Z,70.08
2024-05-09T05:55:50.132Z,68.87
2024-05-09T05:58:17.336Z,69.36
2024-05-09T06:00:44.666Z,67.94
2024-05-09T06:03:13.561Z,69.23
2024-05-09T06:05:43.914Z,70.06
2024-05-09T06:08:11.760Z,69.47
2024-05-09T06:10:40.833Z,70.45
2024-05-09T06:13:11.578Z,68.97
2024-05-09T06:15:40.336Z,69.51
2024-05-09T06:18:13.038Z,69.15
2024-05-09T06:20:42.821Z,67.64
2024-05-09T06:23:14.463Z,67.64
2024-05-09T06:25:44.361Z,67.29
2024-05-09T06:28:11.768Z,65.30
2024-05-09T06:30:42.315Z,64.43
2024-05-09T06:33:13.940Z,68.99
2024-05-09T06:35:43.427Z,64.01
2024-05-09T06:38:11.066Z,62.56
2024-05-09T06:40:42.381Z,59.97
2024-05-09T06:43:19.086Z,57.85
2024-05-09T06:45:53.173Z,56.50
2024-05-09T06:48:25.063Z,56.47
2024-05-09T06:50:55.231Z,55.67
2024-05-09T06:53:25.888Z,56.90
2024-05-09T06:55:55.478Z,54.70
2024-05-09T06:58:22.548Z,53.85
2024-05-09T07:00:51.924Z,52.94
2024-05-09T07:03:19.732Z,52.34
2024-05-09T07:05:48.792Z,51.28
2024-05-09T07:08:17.625Z,50.58
2024-05-09T07:10:45.184Z,51.36
2024-05-09T07:13:14.307Z,51.41
2024-05-09T07:15:42.334Z,52.49
2024-05-09T07:18:24.680Z,52.43
2024-05-09T07:20:54.757Z,51.63
2024-05-09T07:23:21.872Z,50.98
2024-05-09T07:25:49.217Z,52.24
2024-05-09T07:28:21.043Z,51.69
2024-05-09T07:30:48.385Z,50.68
2024-05-09T07:33:23.794Z,49.49
2024-05-09T07:35:52.165Z,50.13
2024-05-09T07:38:19.514Z,49.81
2024-05-09T07:40:46.897Z,48.44
2024-05-09T07:43:16.592Z,48.08
2024-05-09T07:45:52.405Z,46.83
2024-05-09T07:50:00.071Z,46.21
2024-05-09T07:53:49.285Z,45.38
2024-05-09T07:56:22.368Z,44.40
2024-05-09T07:58:52.448Z,43.84
2024-05-09T08:01:20.880Z,42.28
2024-05-09T08:03:48.599Z,42.61
2024-05-09T08:06:18.156Z,41.81
2024-05-09T08:08:48.160Z,41.66
2024-05-09T08:11:15.543Z,41.03
2024-05-09T08:13:42.712Z,40.61
2024-05-09T08:16:13.345Z,39.86
2024-05-09T08:18:41.000Z,39.15
2024-05-09T08:21:08.247Z,39.10
2024-05-09T08:23:36.332Z,37.87
2024-05-09T08:26:07.966Z,39.14
2024-05-09T08:28:38.032Z,38.30
2024-05-09T08:31:06.917Z,38.51
2024-05-09T08:33:37.472Z,38.45
2024-05-09T08:36:07.380Z,37.91
2024-05-09T08:38:39.004Z,37.65
2024-05-09T08:41:09.192Z,37.18
2024-05-09T08:43:41.523Z,36.97
2024-05-09T08:46:13.119Z,36.75
2024-05-09T08:48:43.442Z,38.60
2024-05-09T08:51:10.538Z,38.59
2024-05-09T08:53:37.710Z,37.58
2024-05-09T08:56:12.731Z,36.74
2024-05-09T08:58:42.011Z,36.84
2024-05-09T09:01:09.678Z,36.12
2024-05-09T09:03:40.089Z,35.07
2024-05-09T09:06:15.849Z,35.22
2024-05-09T09:08:47.756Z,34.42
2024-05-09T09:11:17.373Z,33.22
2024-05-09T09:13:44.402Z,33.85
2024-05-09T09:16:14.181Z,33.79
2024-05-09T09:18:46.074Z,33.92
2024-05-09T09:21:13.413Z,34.38
2024-05-09T09:23:43.429Z,34.65
2024-05-09T09:26:16.615Z,33.76
2024-05-09T09:28:47.022Z,34.22
2024-05-09T09:31:20.404Z,33.97
2024-05-09T09:33:52.504Z,33.31
2024-05-09T09:36:19.792Z,33.89
2024-05-09T09:38:51.246Z,32.80
2024-05-09T09:41:20.252Z,31.75
2024-05-09T09:43:47.994Z,32.30
2024-05-09T09:46:18.208Z,33.73
2024-05-09T09:48:46.694Z,34.17
2024-05-09T09:51:15.208Z,33.80
2024-05-09T09:53:43.776Z,34.75
2024-05-09T09:56:11.110Z,34.53
2024-05-09T09:58:42.328Z,34.38
2024-05-09T10:01:09.508Z,33.66
2024-05-09T10:03:39.272Z,32.20
2024-05-09T10:06:10.814Z,32.41
2024-05-09T10:08:38.235Z,29.88
2024-05-09T10:11:11.179Z,29.74
2024-05-09T10:13:43.845Z,30.01
2024-05-09T10:16:11.833Z,30.07
2024-05-09T10:18:41.051Z,30.07
2024-05-09T10:21:22.708Z,30.79
2024-05-09T10:24:03.136Z,29.39
2024-05-09T10:26:35.554Z,28.84
2024-05-09T10:29:19.275Z,29.50
2024-05-09T10:31:48.978Z,29.25
2024-05-09T10:34:26.915Z,29.10
2024-05-09T10:36:56.559Z,30.12
2024-05-09T10:39:25.435Z,29.71
2024-05-09T10:41:52.524Z,28.94
2024-05-09T10:44:23.974Z,28.35
2024-05-09T10:46:51.250Z,28.18
2024-05-09T10:49:20.862Z,27.93
2024-05-09T10:51:49.046Z,28.48
2024-05-09T10:54:16.195Z,27.50
2024-05-09T10:56:43.284Z,27.70
2024-05-09T10:59:12.695Z,28.41
2024-05-09T11:01:40.535Z,29.13
2024-05-09T11:04:10.926Z,29.98
2024-05-09T11:06:41.063Z,30.34
2024-05-09T11:09:10.878Z,30.25
2024-05-09T11:11:40.438Z,30.04
2024-05-09T11:14:17.276Z,30.05
2024-05-09T11:16:44.311Z,29.66
2024-05-09T11:19:15.020Z,29.12
2024-05-09T11:21:45.286Z,29.20
2024-05-09T11:24:12.589Z,29.07
2024-05-09T11:26:39.711Z,28.42
2024-05-09T11:29:06.794Z,27.72
2024-05-09T11:31:45.417Z,28.69
2024-05-09T11:34:12.660Z,28.71
2024-05-09T11:36:39.920Z,29.27
2024-05-09T11:39:07.062Z,29.03
2024-05-09T11:41:36.318Z,29.07
2024-05-09T11:44:03.319Z,29.12
2024-05-09T11:46:30.389Z,28.33
2024-05-09T11:49:00.615Z,27.19
2024-05-09T11:51:27.847Z,27.03
2024-05-09T11:53:54.918Z,27.92
2024-05-09T11:56:24.160Z,28.38
2024-05-09T11:58:51.192Z,27.79
2024-05-09T12:01:20.096Z,27.21
2024-05-09T12:03:49.399Z,28.95
2024-05-09T12:06:18.899Z,29.11
2024-05-09T12:08:48.540Z,28.39
2024-05-09T12:11:20.258Z,28.38
2024-05-09T12:13:47.366Z,28.02
2024-05-09T12:16:14.612Z,27.08
2024-05-09T12:18:41.817Z,27.40
2024-05-09T12:21:08.946Z,27.37
2024-05-09T12:23:40.568Z,27.79
2024-05-09T12:26:07.714Z,28.10
2024-05-09T12:28:34.712Z,27.26
2024-05-09T12:31:04.090Z,26.54
2024-05-09T12:33:33.785Z,26.88
2024-05-09T12:36:01.016Z,27.01
2024-05-09T12:38:28.104Z,27.32
2024-05-09T12:40:57.487Z,26.97
2024-05-09T12:43:24.692Z,26.59
2024-05-09T12:45:51.817Z,26.00
2024-05-09T12:48:19.135Z,26.63
2024-05-09T12:50:48.991Z,26.57
2024-05-09T12:53:16.122Z,26.41
2024-05-09T12:55:53.434Z,26.70
2024-05-09T12:58:27.021Z,26.79
2024-05-09T13:00:54.345Z,27.54
2024-05-09T13:03:22.005Z,27.24
2024-05-09T13:05:52.402Z,27.21
2024-05-09T13:08:22.871Z,26.87
2024-05-09T13:10:50.427Z,27.21
2024-05-09T13:13:17.627Z,26.56
2024-05-09T13:15:44.740Z,26.36
2024-05-09T13:18:11.932Z,26.10
2024-05-09T13:20:38.980Z,26.09
2024-05-09T13:23:08.164Z,26.10
2024-05-09T13:25:36.942Z,27.77
2024-05-09T13:28:05.977Z,27.18
2024-05-09T13:30:39.713Z,26.82
2024-05-09T13:33:17.943Z,27.39
2024-05-09T13:35:50.473Z,27.12
2024-05-09T13:38:19.938Z,27.12
2024-05-09T13:40:52.117Z,27.37
2024-05-09T13:43:22.008Z,27.19
2024-05-09T13:45:49.554Z,26.91
2024-05-09T13:48:19.746Z,26.92
2024-05-09T13:50:47.279Z,26.77
2024-05-09T13:53:14.386Z,26.34
2024-05-09T13:55:43.964Z,25.94
2024-05-09T13:58:11.069Z,26.50
2024-05-09T14:00:46.156Z,26.14
2024-05-09T14:03:18.765Z,26.14
2024-05-09T14:05:47.831Z,26.23
2024-05-09T14:08:15.751Z,26.34
2024-05-09T14:10:47.078Z,26.04
2024-05-09T14:13:17.196Z,26.97
2024-05-09T14:15:47.247Z,27.20
2024-05-09T14:18:15.005Z,27.57
2024-05-09T14:20:45.723Z,27.84
2024-05-09T14:23:12.717Z,27.15
2024-05-09T14:25:42.852Z,27.34
2024-05-09T14:28:12.553Z,27.12
2024-05-09T14:30:43.031Z,26.85
2024-05-09T14:33:12.866Z,26.79
2024-05-09T14:35:40.054Z,26.25
2024-05-09T14:38:08.994Z,26.31
2024-05-09T14:40:42.302Z,26.14
2024-05-09T14:43:15.452Z,27.04
2024-05-09T14:45:43.974Z,27.59
2024-05-09T14:48:14.148Z,26.98
2024-05-09T14:50:44.102Z,26.96
2024-05-09T14:53:12.669Z,27.66
2024-05-09T14:55:42.056Z,27.82
2024-05-09T14:58:16.105Z,28.32
2024-05-09T15:00:51.188Z,27.88
2024-05-09T15:03:20.752Z,28.12
2024-05-09T15:05:51.896Z,27.97
2024-05-09T15:08:21.966Z,28.65
2024-05-09T15:10:51.751Z,30.50
2024-05-09T15:13:21.402Z,30.30
2024-05-09T15:15:48.838Z,30.07
2024-05-09T15:18:16.579Z,29.68
2024-05-09T15:20:46.407Z,30.42
2024-05-09T15:23:13.764Z,30.96
2024-05-09T15:25:41.153Z,30.34
2024-05-09T15:28:08.614Z,30.96
2024-05-09T15:30:38.673Z,30.60
2024-05-09T15:33:07.603Z,30.95
2024-05-09T15:35:41.514Z,31.32
2024-05-09T15:38:09.712Z,30.57
2024-05-09T15:40:40.020Z,31.40
2024-05-09T15:43:10.193Z,31.08
2024-05-09T15:45:39.663Z,31.66
2024-05-09T15:48:11.443Z,31.90
2024-05-09T15:50:41.398Z,31.90
2024-05-09T15:53:13.838Z,31.67
2024-05-09T15:55:42.273Z,31.87
2024-05-09T15:58:12.389Z,32.06
2024-05-09T16:00:42.666Z,32.46
2024-05-09T16:03:14.925Z,32.53
2024-05-09T16:05:46.714Z,32.64
2024-05-09T16:08:15.167Z,32.98
2024-05-09T16:10:46.035Z,32.70
2024-05-09T16:13:16.684Z,33.24
2024-05-09T16:15:44.596Z,33.38
2024-05-09T16:18:12.495Z,33.94
2024-05-09T16:20:44.694Z,33.81
2024-05-09T16:23:13.316Z,34.35
2024-05-09T16:25:47.817Z,34.00
2024-05-09T16:28:15.298Z,34.43
2024-05-09T16:30:42.515Z,34.16
2024-05-09T16:33:12.519Z,34.42
2024-05-09T16:35:42.262Z,34.06
2024-05-09T16:38:09.489Z,34.00
2024-05-09T16:40:40.243Z,35.07
2024-05-09T16:43:10.267Z,34.89
2024-05-09T16:45:40.130Z,34.92
2024-05-09T16:48:11.331Z,34.87
2024-05-09T16:50:39.090Z,35.03
2024-05-09T16:53:10.795Z,35.61
2024-05-09T16:55:38.649Z,35.84
2024-05-09T16:58:12.438Z,36.37
2024-05-09T17:00:43.795Z,36.43
2024-05-09T17:03:16.105Z,36.37
2024-05-09T17:05:46.929Z,36.23
2024-05-09T17:08:16.527Z,36.32
2024-05-09T17:10:45.092Z,36.09
2024-05-09T17:13:12.174Z,35.92
2024-05-09T17:15:41.442Z,37.02
2024-05-09T17:18:16.229Z,36.74
2024-05-09T17:20:45.789Z,36.52
2024-05-09T17:23:15.979Z,36.72
2024-05-09T17:25:43.594Z,36.18
2024-05-09T17:28:13.623Z,35.89
2024-05-09T17:30:42.115Z,35.92
2024-05-09T17:33:11.623Z,36.40
2024-05-09T17:35:39.750Z,36.08
2024-05-09T17:38:07.447Z,36.63
2024-05-09T17:40:37.119Z,36.51
2024-05-09T17:43:08.368Z,37.11
2024-05-09T17:45:38.695Z,37.25
2024-05-09T17:48:07.323Z,37.07
2024-05-09T17:50:37.822Z,37.12
2024-05-09T17:53:06.358Z,37.55
2024-05-09T17:55:33.988Z,39.33
2024-05-09T17:58:04.722Z,41.55
2024-05-09T18:00:39.461Z,42.81
2024-05-09T18:03:13.599Z,43.97
2024-05-09T18:05:42.709Z,45.13
2024-05-09T18:08:10.754Z,45.91
2024-05-09T18:10:40.473Z,47.20
2024-05-09T18:13:11.879Z,47.73
2024-05-09T18:15:40.373Z,48.67
2024-05-09T18:18:08.812Z,49.37
2024-05-09T18:20:42.622Z,49.88
2024-05-09T18:23:15.750Z,50.32
2024-05-09T18:25:46.178Z,50.01
2024-05-09T18:28:13.890Z,50.38
2024-05-09T18:30:43.419Z,51.02
2024-05-09T18:33:13.968Z,51.05
2024-05-09T18:35:45.361Z,51.01
2024-05-09T18:38:12.943Z,50.59
2024-05-09T18:40:42.016Z,50.36
2024-05-09T18:43:13.412Z,51.24
2024-05-09T18:45:43.116Z,51.49
2024-05-09T18:48:10.494Z,51.23
2024-05-09T18:50:40.406Z,50.96
2024-05-09T18:53:11.571Z,51.25
2024-05-09T18:55:42.458Z,51.57
2024-05-09T18:58:09.780Z,52.02
2024-05-09T19:00:39.867Z,52.27
2024-05-09T19:03:12.443Z,51.99
2024-05-09T19:05:45.523Z,52.18
2024-05-09T19:08:15.945Z,52.45
2024-05-09T19:10:43.437Z,52.01
2024-05-09T19:13:14.455Z,52.39
2024-05-09T19:15:43.671Z,52.90
2024-05-09T19:18:15.505Z,53.23
2024-05-09T19:20:45.955Z,53.35
2024-05-09T19:23:15.514Z,53.56
2024-05-09T19:25:42.524Z,53.78
2024-05-09T19:28:12.799Z,53.68
2024-05-09T19:30:42.244Z,53.95
2024-05-09T19:33:14.756Z,54.14
2024-05-09T19:35:45.616Z,54.02
2024-05-09T19:38:14.658Z,54.35
2024-05-09T19:40:46.754Z,54.43
2024-05-09T19:43:13.950Z,54.55
2024-05-09T19:45:43.696Z,54.70
2024-05-09T19:48:11.089Z,55.05
2024-05-09T19:50:43.775Z,54.95
2024-05-09T19:53:13.482Z,56.06
2024-05-09T19:55:43.460Z,55.35
2024-05-09T19:58:12.098Z,55.36
2024-05-09T20:00:43.727Z,55.21
2024-05-09T20:03:14.103Z,55.76
2024-05-09T20:05:45.363Z,55.94
2024-05-09T20:08:15.660Z,55.59
2024-05-09T20:10:45.039Z,55.32
2024-05-09T20:13:14.479Z,56.35
2024-05-09T20:15:41.565Z,56.13
2024-05-09T20:18:11.014Z,56.13
2024-05-09T20:20:41.802Z,56.17
2024-05-09T20:23:12.551Z,56.04
2024-05-09T20:25:40.531Z,57.15
2024-05-09T20:28:07.761Z,56.48
2024-05-09T20:30:36.037Z,57.25
2024-05-09T20:33:09.495Z,56.83
2024-05-09T20:35:40.075Z,57.41
2024-05-09T20:38:07.479Z,57.26
2024-05-09T20:40:39.103Z,56.96
2024-05-09T20:43:11.223Z,57.03
2024-05-09T20:45:41.145Z,56.79
2024-05-09T20:48:12.394Z,57.10
2024-05-09T20:50:41.911Z,57.37
2024-05-09T20:53:14.615Z,56.91
2024-05-09T20:55:45.963Z,57.32
2024-05-09T20:58:13.692Z,57.27
2024-05-09T21:00:45.504Z,57.81
2024-05-09T21:03:16.175Z,57.83
2024-05-09T21:05:44.390Z,57.38
2024-05-09T21:08:14.712Z,57.20
2024-05-09T21:10:41.924Z,58.54
2024-05-09T21:13:09.091Z,58.84
2024-05-09T21:15:36.704Z,59.06
2024-05-09T21:18:04.768Z,59.73
2024-05-09T21:20:34.585Z,59.67
2024-05-09T21:23:02.653Z,60.24
2024-05-09T21:25:30.675Z,59.41
2024-05-09T21:28:03.350Z,59.74
2024-05-09T21:30:38.739Z,59.27
2024-05-09T21:33:13.741Z,60.35
2024-05-09T21:35:46.955Z,59.80
2024-05-09T21:38:15.176Z,60.67
2024-05-09T21:40:43.159Z,60.57
2024-05-09T21:43:10.275Z,61.60
2024-05-09T21:45:41.928Z,61.73
2024-05-09T21:48:12.881Z,61.77
2024-05-09T21:50:42.146Z,62.31
2024-05-09T21:53:11.754Z,62.13
2024-05-09T21:55:41.314Z,62.20
2024-05-09T21:58:11.372Z,62.23
2024-05-09T22:00:40.155Z,61.55
2024-05-09T22:03:10.941Z,61.63
2024-05-09T22:05:42.270Z,61.90
2024-05-09T22:08:09.818Z,62.90
2024-05-09T22:10:39.446Z,61.78
2024-05-09T22:13:07.501Z,61.38
2024-05-09T22:15:37.421Z,62.45
2024-05-09T22:18:06.490Z,62.70
2024-05-09T22:20:37.658Z,63.66
2024-05-09T22:23:09.542Z,64.24
2024-05-09T22:25:40.016Z,64.23
2024-05-09T22:28:07.571Z,65.51
2024-05-09T22:30:39.640Z,65.49
2024-05-09T22:33:09.738Z,66.35
2024-05-09T22:35:43.295Z,65.67
2024-05-09T22:38:10.368Z,66.10
2024-05-09T22:40:45.951Z,65.62
2024-05-09T22:43:21.491Z,65.47
2024-05-09T22:45:55.064Z,64.71
2024-05-09T22:48:29.991Z,64.83
2024-05-09T22:50:59.424Z,65.23
2024-05-09T22:53:28.672Z,64.63
2024-05-09T22:55:55.738Z,65.30
2024-05-09T22:58:23.403Z,65.29
2024-05-09T23:00:50.749Z,64.91
2024-05-09T23:03:21.236Z,65.70
2024-05-09T23:05:48.784Z,66.08
2024-05-09T23:08:16.075Z,65.21
2024-05-09T23:10:45.419Z,65.23
2024-05-09T23:13:12.625Z,64.67
2024-05-09T23:15:42.274Z,64.74
2024-05-09T23:18:09.639Z,65.29
2024-05-09T23:20:40.232Z,65.84
2024-05-09T23:23:09.442Z,65.75
2024-05-09T23:25:37.779Z,65.62
2024-05-09T23:28:05.585Z,64.80
2024-05-09T23:30:38.927Z,65.00
2024-05-09T23:33:10.485Z,65.47
2024-05-09T23:35:38.525Z,64.83
2024-05-09T23:38:08.678Z,65.97
2024-05-09T23:40:39.623Z,65.95
2024-05-09T23:43:10.409Z,65.70
2024-05-09T23:45:38.098Z,65.64
2024-05-09T23:48:06.078Z,65.52
2024-05-09T23:50:38.677Z,66.87
2024-05-09T23:53:08.767Z,67.92
2024-05-09T23:55:39.882Z,69.25
2024-05-09T23:58:07.776Z,69.50
